sensor_id;sensor_type;location;lat;lon;timestamp;pressure;altitude;pressure_sealevel;temperature;humidity
65329;BME280;51941;52.210;5.158;2022-09-21T00:01:40;102638.41;;;9.65;84.23
65329;BME280;51941;52.210;5.158;2022-09-21T00:04:07;102642.63;;;9.59;84.20
65329;BME280;51941;52.210;5.158;2022-09-21T00:06:36;102640.16;;;9.57;84.24
65329;BME280;51941;52.210;5.158;2022-09-21T00:09:03;102645.81;;;9.54;84.28
65329;BME280;51941;52.210;5.158;2022-09-21T00:11:33;102641.22;;;9.48;84.40
65329;BME280;51941;52.210;5.158;2022-09-21T00:14:05;102634.66;;;9.44;84.04
65329;BME280;51941;52.210;5.158;2022-09-21T00:16:33;102635.00;;;9.41;84.07
65329;BME280;51941;52.210;5.158;2022-09-21T00:19:01;102537.44;;;8.79;84.03
65329;BME280;51941;52.210;5.158;2022-09-21T00:21:28;102641.19;;;9.34;83.94
65329;BME280;51941;52.210;5.158;2022-09-21T00:23:55;102635.81;;;9.27;84.22
65329;BME280;51941;52.210;5.158;2022-09-21T00:26:25;102577.63;;;8.90;84.18
65329;BME280;51941;52.210;5.158;2022-09-21T00:28:52;102639.50;;;9.18;84.54
65329;BME280;51941;52.210;5.158;2022-09-21T00:31:21;102624.69;;;9.09;84.54
65329;BME280;51941;52.210;5.158;2022-09-21T00:33:49;102638.19;;;9.14;84.53
65329;BME280;51941;52.210;5.158;2022-09-21T00:36:18;102635.09;;;9.10;84.66
65329;BME280;51941;52.210;5.158;2022-09-21T00:43:12;102639.22;;;9.05;84.79
65329;BME280;51941;52.210;5.158;2022-09-21T00:45:40;102630.03;;;9.01;84.72
65329;BME280;51941;52.210;5.158;2022-09-21T00:48:10;102639.94;;;8.99;84.29
65329;BME280;51941;52.210;5.158;2022-09-21T00:50:40;102640.28;;;8.96;84.64
65329;BME280;51941;52.210;5.158;2022-09-21T00:53:08;102639.00;;;8.92;84.86
65329;BME280;51941;52.210;5.158;2022-09-21T00:55:38;102637.53;;;8.89;84.76
65329;BME280;51941;52.210;5.158;2022-09-21T00:58:09;102606.66;;;8.67;84.97
65329;BME280;51941;52.210;5.158;2022-09-21T01:00:40;102636.59;;;8.82;85.08
65329;BME280;51941;52.210;5.158;2022-09-21T01:03:10;102642.22;;;8.79;85.19
65329;BME280;51941;52.210;5.158;2022-09-21T01:05:37;102643.38;;;8.76;85.31
65329;BME280;51941;52.210;5.158;2022-09-21T01:08:06;102613.00;;;8.58;85.28
65329;BME280;51941;52.210;5.158;2022-09-21T01:10:46;102639.78;;;8.69;85.25
65329;BME280;51941;52.210;5.158;2022-09-21T01:13:27;102619.59;;;8.54;85.33
65329;BME280;51941;52.210;5.158;2022-09-21T01:16:04;102635.22;;;8.63;85.43
65329;BME280;51941;52.210;5.158;2022-09-21T01:18:41;102636.56;;;8.59;85.43
65329;BME280;51941;52.210;5.158;2022-09-21T01:21:20;102621.94;;;8.49;85.56
65329;BME280;51941;52.210;5.158;2022-09-21T01:24:23;102637.41;;;8.52;85.78
65329;BME280;51941;52.210;5.158;2022-09-21T01:27:21;102606.38;;;8.31;85.52
65329;BME280;51941;52.210;5.158;2022-09-21T01:29:56;102638.66;;;8.41;85.46
65329;BME280;51941;52.210;5.158;2022-09-21T01:32:30;102638.81;;;8.39;85.42
65329;BME280;51941;52.210;5.158;2022-09-21T01:35:02;102638.31;;;8.36;85.62
65329;BME280;51941;52.210;5.158;2022-09-21T01:37:36;102628.47;;;8.30;85.62
65329;BME280;51941;52.210;5.158;2022-09-21T01:40:08;102629.13;;;8.24;85.45
65329;BME280;51941;52.210;5.158;2022-09-21T01:42:38;102633.25;;;8.26;85.64
65329;BME280;51941;52.210;5.158;2022-09-21T01:45:10;102636.06;;;8.25;85.68
65329;BME280;51941;52.210;5.158;2022-09-21T01:47:40;102600.72;;;8.03;85.81
65329;BME280;51941;52.210;5.158;2022-09-21T01:50:09;102629.50;;;8.21;85.76
65329;BME280;51941;52.210;5.158;2022-09-21T01:52:41;102633.28;;;8.18;85.54
65329;BME280;51941;52.210;5.158;2022-09-21T01:55:14;102630.97;;;8.15;85.77
65329;BME280;51941;52.210;5.158;2022-09-21T01:57:48;102636.44;;;8.14;85.59
65329;BME280;51941;52.210;5.158;2022-09-21T02:00:19;102633.31;;;8.10;85.62
65329;BME280;51941;52.210;5.158;2022-09-21T02:02:50;102592.38;;;7.75;85.64
65329;BME280;51941;52.210;5.158;2022-09-21T02:05:21;102634.47;;;8.07;85.69
65329;BME280;51941;52.210;5.158;2022-09-21T02:07:50;102638.28;;;8.05;85.69
65329;BME280;51941;52.210;5.158;2022-09-21T02:10:21;102633.19;;;8.03;85.71
65329;BME280;51941;52.210;5.158;2022-09-21T02:12:52;102636.00;;;8.02;85.43
65329;BME280;51941;52.210;5.158;2022-09-21T02:15:30;102607.19;;;7.84;85.44
65329;BME280;51941;52.210;5.158;2022-09-21T02:18:04;102642.25;;;8.01;85.56
65329;BME280;51941;52.210;5.158;2022-09-21T02:20:35;102637.97;;;8.00;85.52
65329;BME280;51941;52.210;5.158;2022-09-21T02:23:11;102641.59;;;7.99;85.59
65329;BME280;51941;52.210;5.158;2022-09-21T02:25:45;102631.56;;;7.94;85.72
65329;BME280;51941;52.210;5.158;2022-09-21T02:28:23;102603.09;;;7.74;85.54
65329;BME280;51941;52.210;5.158;2022-09-21T02:31:03;102634.66;;;7.98;85.97
65329;BME280;51941;52.210;5.158;2022-09-21T02:33:38;102639.47;;;7.94;86.01
65329;BME280;51941;52.210;5.158;2022-09-21T02:36:14;102626.31;;;7.86;85.86
65329;BME280;51941;52.210;5.158;2022-09-21T02:38:48;102640.78;;;7.90;85.95
65329;BME280;51941;52.210;5.158;2022-09-21T02:41:20;102643.44;;;7.90;85.63
65329;BME280;51941;52.210;5.158;2022-09-21T02:43:51;102638.16;;;7.90;85.93
65329;BME280;51941;52.210;5.158;2022-09-21T02:46:28;102638.97;;;7.91;86.05
65329;BME280;51941;52.210;5.158;2022-09-21T02:48:59;102579.41;;;7.57;85.88
65329;BME280;51941;52.210;5.158;2022-09-21T02:51:36;102629.91;;;7.93;85.87
65329;BME280;51941;52.210;5.158;2022-09-21T02:54:07;102599.34;;;7.68;85.93
65329;BME280;51941;52.210;5.158;2022-09-21T02:56:36;102599.81;;;7.72;85.85
65329;BME280;51941;52.210;5.158;2022-09-21T02:59:05;102630.75;;;7.94;85.82
65329;BME280;51941;52.210;5.158;2022-09-21T03:01:38;102632.38;;;7.95;85.80
65329;BME280;51941;52.210;5.158;2022-09-21T03:04:05;102628.91;;;7.94;85.81
65329;BME280;51941;52.210;5.158;2022-09-21T03:06:32;102629.75;;;7.95;85.83
65329;BME280;51941;52.210;5.158;2022-09-21T03:08:59;102622.50;;;7.97;85.45
65329;BME280;51941;52.210;5.158;2022-09-21T03:11:25;102630.41;;;7.97;85.51
65329;BME280;51941;52.210;5.158;2022-09-21T03:13:52;102633.03;;;7.97;85.36
65329;BME280;51941;52.210;5.158;2022-09-21T03:16:19;102622.66;;;7.95;85.58
65329;BME280;51941;52.210;5.158;2022-09-21T03:18:48;102632.56;;;7.93;85.67
65329;BME280;51941;52.210;5.158;2022-09-21T03:21:14;102640.13;;;7.96;85.41
65329;BME280;51941;52.210;5.158;2022-09-21T03:23:41;102634.66;;;7.98;85.24
65329;BME280;51941;52.210;5.158;2022-09-21T03:26:08;102632.84;;;7.98;85.46
65329;BME280;51941;52.210;5.158;2022-09-21T03:28:34;102630.06;;;8.00;85.33
65329;BME280;51941;52.210;5.158;2022-09-21T03:31:01;102639.28;;;8.04;85.28
65329;BME280;51941;52.210;5.158;2022-09-21T03:33:28;102637.47;;;8.04;85.16
65329;BME280;51941;52.210;5.158;2022-09-21T03:35:56;102633.19;;;8.03;85.29
65329;BME280;51941;52.210;5.158;2022-09-21T03:38:23;102629.75;;;7.95;85.38
65329;BME280;51941;52.210;5.158;2022-09-21T03:40:51;102645.84;;;8.08;85.16
65329;BME280;51941;52.210;5.158;2022-09-21T03:43:18;102641.41;;;8.09;85.41
65329;BME280;51941;52.210;5.158;2022-09-21T03:45:47;102632.81;;;8.06;85.49
65329;BME280;51941;52.210;5.158;2022-09-21T03:48:14;102640.41;;;8.10;85.51
65329;BME280;51941;52.210;5.158;2022-09-21T03:50:41;102641.56;;;8.07;85.38
65329;BME280;51941;52.210;5.158;2022-09-21T03:53:09;102641.41;;;8.09;85.32
65329;BME280;51941;52.210;5.158;2022-09-21T03:55:36;102645.03;;;8.07;85.46
65329;BME280;51941;52.210;5.158;2022-09-21T03:58:03;102646.22;;;8.05;85.66
65329;BME280;51941;52.210;5.158;2022-09-21T04:00:34;102635.84;;;7.95;85.78
65329;BME280;51941;52.210;5.158;2022-09-21T04:03:01;102640.59;;;8.00;85.43
65329;BME280;51941;52.210;5.158;2022-09-21T04:05:27;102637.78;;;8.01;85.47
65329;BME280;51941;52.210;5.158;2022-09-21T04:07:55;102630.72;;;8.02;85.38
65329;BME280;51941;52.210;5.158;2022-09-21T04:10:24;102627.25;;;8.01;85.29
65329;BME280;51941;52.210;5.158;2022-09-21T04:12:58;102635.31;;;8.00;84.97
65329;BME280;51941;52.210;5.158;2022-09-21T04:15:25;102638.47;;;7.95;85.31
65329;BME280;51941;52.210;5.158;2022-09-21T04:17:53;102626.31;;;7.86;85.26
65329;BME280;51941;52.210;5.158;2022-09-21T04:20:20;102629.78;;;7.87;85.32
65329;BME280;51941;52.210;5.158;2022-09-21T04:22:47;102589.97;;;7.57;85.26
65329;BME280;51941;52.210;5.158;2022-09-21T04:25:16;102631.09;;;7.83;85.19
65329;BME280;51941;52.210;5.158;2022-09-21T04:27:44;102634.88;;;7.80;85.29
65329;BME280;51941;52.210;5.158;2022-09-21T04:30:12;102593.91;;;7.53;85.30
65329;BME280;51941;52.210;5.158;2022-09-21T04:32:39;102645.78;;;7.77;85.48
65329;BME280;51941;52.210;5.158;2022-09-21T04:35:07;102641.50;;;7.76;85.31
65329;BME280;51941;52.210;5.158;2022-09-21T04:37:34;102641.81;;;7.73;85.44
65329;BME280;51941;52.210;5.158;2022-09-21T04:40:01;102641.34;;;7.70;85.58
65329;BME280;51941;52.210;5.158;2022-09-21T04:42:28;102646.94;;;7.66;85.54
65329;BME280;51941;52.210;5.158;2022-09-21T04:44:56;102597.38;;;7.29;85.80
65329;BME280;51941;52.210;5.158;2022-09-21T04:47:23;102590.47;;;7.28;85.73
65329;BME280;51941;52.210;5.158;2022-09-21T04:49:50;102620.47;;;7.44;85.61
65329;BME280;51941;52.210;5.158;2022-09-21T04:52:18;102641.69;;;7.50;85.69
65329;BME280;51941;52.210;5.158;2022-09-21T04:54:45;102646.63;;;7.45;85.81
65329;BME280;51941;52.210;5.158;2022-09-21T04:57:12;102639.38;;;7.39;85.79
65329;BME280;51941;52.210;5.158;2022-09-21T04:59:39;102647.81;;;7.35;85.62
65329;BME280;51941;52.210;5.158;2022-09-21T05:02:07;102650.06;;;7.29;85.70
65329;BME280;51941;52.210;5.158;2022-09-21T05:04:34;102652.22;;;7.26;85.58
65329;BME280;51941;52.210;5.158;2022-09-21T05:07:01;102649.06;;;7.22;85.79
65329;BME280;51941;52.210;5.158;2022-09-21T05:09:27;102637.56;;;7.15;85.73
65329;BME280;51941;52.210;5.158;2022-09-21T05:12:08;102652.53;;;7.15;85.80
65329;BME280;51941;52.210;5.158;2022-09-21T05:14:35;102600.00;;;6.81;85.78
65329;BME280;51941;52.210;5.158;2022-09-21T05:17:02;102656.63;;;7.09;85.79
65329;BME280;51941;52.210;5.158;2022-09-21T05:19:30;102656.81;;;7.08;85.89
65329;BME280;51941;52.210;5.158;2022-09-21T05:21:56;102656.97;;;7.06;85.71
65329;BME280;51941;52.210;5.158;2022-09-21T05:24:23;102665.00;;;7.05;85.79
65329;BME280;51941;52.210;5.158;2022-09-21T05:26:50;102666.16;;;7.02;85.75
65329;BME280;51941;52.210;5.158;2022-09-21T05:29:17;102621.88;;;6.73;85.69
65329;BME280;51941;52.210;5.158;2022-09-21T05:31:46;102664.69;;;7.00;85.63
65329;BME280;51941;52.210;5.158;2022-09-21T05:34:22;102664.50;;;7.01;85.72
65329;BME280;51941;52.210;5.158;2022-09-21T05:36:59;102658.94;;;7.04;85.79
65329;BME280;51941;52.210;5.158;2022-09-21T05:39:28;102674.25;;;7.09;85.67
65329;BME280;51941;52.210;5.158;2022-09-21T05:41:55;102662.56;;;7.11;85.63
65329;BME280;51941;52.210;5.158;2022-09-21T05:44:22;102675.56;;;7.21;85.44
65329;BME280;51941;52.210;5.158;2022-09-21T05:46:53;102668.19;;;7.24;85.64
65329;BME280;51941;52.210;5.158;2022-09-21T05:49:31;102667.50;;;7.30;85.45
65329;BME280;51941;52.210;5.158;2022-09-21T05:52:06;102675.44;;;7.39;85.45
65329;BME280;51941;52.210;5.158;2022-09-21T05:54:48;102676.44;;;7.46;85.53
65329;BME280;51941;52.210;5.158;2022-09-21T05:57:22;102687.31;;;7.51;85.48
65329;BME280;51941;52.210;5.158;2022-09-21T06:00:00;102687.47;;;7.57;85.48
65329;BME280;51941;52.210;5.158;2022-09-21T06:02:48;102681.53;;;7.63;85.71
65329;BME280;51941;52.210;5.158;2022-09-21T06:05:17;102689.94;;;7.67;85.72
65329;BME280;51941;52.210;5.158;2022-09-21T06:07:45;102640.06;;;7.41;85.60
65329;BME280;51941;52.210;5.158;2022-09-21T06:10:13;102690.91;;;7.82;85.59
65329;BME280;51941;52.210;5.158;2022-09-21T06:12:40;102688.59;;;7.95;85.57
65329;BME280;51941;52.210;5.158;2022-09-21T06:15:11;102686.75;;;8.04;85.16
65329;BME280;51941;52.210;5.158;2022-09-21T06:17:38;102682.94;;;8.15;85.08
65329;BME280;51941;52.210;5.158;2022-09-21T06:20:05;102688.81;;;8.25;84.68
65329;BME280;51941;52.210;5.158;2022-09-21T06:22:33;102687.47;;;8.37;84.86
65329;BME280;51941;52.210;5.158;2022-09-21T06:25:01;102695.66;;;8.58;84.72
65329;BME280;51941;52.210;5.158;2022-09-21T06:27:28;102696.78;;;8.87;84.52
65329;BME280;51941;52.210;5.158;2022-09-21T06:29:58;102695.97;;;9.17;84.06
65329;BME280;51941;52.210;5.158;2022-09-21T06:32:25;102667.31;;;9.51;83.88
65329;BME280;51941;52.210;5.158;2022-09-21T06:34:52;102677.41;;;10.29;83.11
65329;BME280;51941;52.210;5.158;2022-09-21T06:37:19;102684.81;;;11.21;82.29
65329;BME280;51941;52.210;5.158;2022-09-21T06:39:45;102684.59;;;11.99;78.83
65329;BME280;51941;52.210;5.158;2022-09-21T06:42:13;102675.75;;;12.68;75.58
65329;BME280;51941;52.210;5.158;2022-09-21T06:44:40;102658.47;;;13.18;73.36
65329;BME280;51941;52.210;5.158;2022-09-21T06:47:07;102643.16;;;13.73;70.79
65329;BME280;51941;52.210;5.158;2022-09-21T06:49:34;102685.94;;;14.62;69.15
65329;BME280;51941;52.210;5.158;2022-09-21T06:52:01;102666.44;;;14.99;67.11
65329;BME280;51941;52.210;5.158;2022-09-21T06:54:28;102681.06;;;15.22;65.70
65329;BME280;51941;52.210;5.158;2022-09-21T06:56:55;102679.41;;;15.21;65.72
65329;BME280;51941;52.210;5.158;2022-09-21T06:59:23;102667.09;;;15.19;65.64
65329;BME280;51941;52.210;5.158;2022-09-21T07:01:50;102677.47;;;15.34;65.43
65329;BME280;51941;52.210;5.158;2022-09-21T07:04:21;102681.94;;;15.15;63.14
65329;BME280;51941;52.210;5.158;2022-09-21T07:06:49;102682.84;;;15.28;65.85
65329;BME280;51941;52.210;5.158;2022-09-21T07:09:15;102676.25;;;15.30;65.83
65329;BME280;51941;52.210;5.158;2022-09-21T07:11:42;102668.06;;;15.32;65.77
65329;BME280;51941;52.210;5.158;2022-09-21T07:14:09;102686.03;;;15.43;65.82
65329;BME280;51941;52.210;5.158;2022-09-21T07:16:37;102691.16;;;15.44;65.63
65329;BME280;51941;52.210;5.158;2022-09-21T07:19:04;102686.38;;;15.53;65.78
65329;BME280;51941;52.210;5.158;2022-09-21T07:21:31;102682.66;;;15.79;65.36
65329;BME280;51941;52.210;5.158;2022-09-21T07:23:58;102687.94;;;16.04;64.20
65329;BME280;51941;52.210;5.158;2022-09-21T07:26:25;102657.59;;;16.16;63.75
65329;BME280;51941;52.210;5.158;2022-09-21T07:28:53;102684.50;;;16.70;62.87
65329;BME280;51941;52.210;5.158;2022-09-21T07:31:20;102682.53;;;17.07;62.07
65329;BME280;51941;52.210;5.158;2022-09-21T07:33:49;102684.94;;;17.38;60.82
65329;BME280;51941;52.210;5.158;2022-09-21T07:36:15;102691.25;;;17.67;59.91
65329;BME280;51941;52.210;5.158;2022-09-21T07:38:43;102674.13;;;17.91;59.12
65329;BME280;51941;52.210;5.158;2022-09-21T07:41:11;102687.00;;;18.17;57.89
65329;BME280;51941;52.210;5.158;2022-09-21T07:43:38;102679.41;;;18.38;57.21
65329;BME280;51941;52.210;5.158;2022-09-21T07:46:06;102681.53;;;18.64;56.96
65329;BME280;51941;52.210;5.158;2022-09-21T07:48:33;102663.78;;;18.75;56.69
65329;BME280;51941;52.210;5.158;2022-09-21T07:51:02;102685.53;;;19.07;56.09
65329;BME280;51941;52.210;5.158;2022-09-21T07:53:30;102683.94;;;19.22;55.80
65329;BME280;51941;52.210;5.158;2022-09-21T07:56:02;102683.88;;;19.34;54.91
65329;BME280;51941;52.210;5.158;2022-09-21T07:58:29;102677.59;;;19.28;55.34
65329;BME280;51941;52.210;5.158;2022-09-21T08:01:13;102676.78;;;19.28;55.44
65329;BME280;51941;52.210;5.158;2022-09-21T08:03:40;102679.66;;;19.38;55.42
65329;BME280;51941;52.210;5.158;2022-09-21T08:06:08;102679.16;;;19.41;55.08
65329;BME280;51941;52.210;5.158;2022-09-21T08:08:35;102680.47;;;19.39;55.27
65329;BME280;51941;52.210;5.158;2022-09-21T08:11:02;102681.91;;;19.13;55.45
65329;BME280;51941;52.210;5.158;2022-09-21T08:13:29;102676.97;;;18.76;55.94
65329;BME280;51941;52.210;5.158;2022-09-21T08:15:57;102684.53;;;18.39;56.59
65329;BME280;51941;52.210;5.158;2022-09-21T08:18:24;102683.78;;;18.04;57.26
65329;BME280;51941;52.210;5.158;2022-09-21T08:20:54;102687.75;;;17.66;57.09
65329;BME280;51941;52.210;5.158;2022-09-21T08:23:22;102682.94;;;17.33;57.11
65329;BME280;51941;52.210;5.158;2022-09-21T08:25:50;102690.56;;;17.07;57.26
65329;BME280;51941;52.210;5.158;2022-09-21T08:28:17;102687.34;;;16.86;57.35
65329;BME280;51941;52.210;5.158;2022-09-21T08:30:44;102693.25;;;16.77;57.71
65329;BME280;51941;52.210;5.158;2022-09-21T08:33:10;102701.84;;;16.67;57.85
65329;BME280;51941;52.210;5.158;2022-09-21T08:35:37;102704.13;;;16.63;57.62
65329;BME280;51941;52.210;5.158;2022-09-21T08:38:04;102704.19;;;16.57;57.60
65329;BME280;51941;52.210;5.158;2022-09-21T08:40:33;102701.00;;;16.48;58.07
65329;BME280;51941;52.210;5.158;2022-09-21T08:43:02;102702.78;;;16.36;58.72
65329;BME280;51941;52.210;5.158;2022-09-21T08:45:37;102709.38;;;16.34;58.93
65329;BME280;51941;52.210;5.158;2022-09-21T08:48:10;102702.28;;;16.27;58.69
65329;BME280;51941;52.210;5.158;2022-09-21T08:50:40;102701.31;;;16.22;59.32
65329;BME280;51941;52.210;5.158;2022-09-21T08:53:12;102706.06;;;16.20;59.20
65329;BME280;51941;52.210;5.158;2022-09-21T08:55:42;102697.66;;;16.16;59.12
65329;BME280;51941;52.210;5.158;2022-09-21T08:58:20;102705.31;;;16.13;58.99
65329;BME280;51941;52.210;5.158;2022-09-21T09:01:02;102699.59;;;16.09;58.97
65329;BME280;51941;52.210;5.158;2022-09-21T09:03:57;102701.66;;;16.07;58.65
65329;BME280;51941;52.210;5.158;2022-09-21T09:06:44;102702.06;;;16.11;58.93
65329;BME280;51941;52.210;5.158;2022-09-21T09:09:37;102713.88;;;16.21;58.81
65329;BME280;51941;52.210;5.158;2022-09-21T09:12:31;102709.84;;;16.30;58.23
65329;BME280;51941;52.210;5.158;2022-09-21T09:15:25;102718.16;;;16.22;58.29
65329;BME280;51941;52.210;5.158;2022-09-21T09:17:56;102710.97;;;16.23;57.76
65329;BME280;51941;52.210;5.158;2022-09-21T09:20:28;102709.78;;;16.19;57.79
65329;BME280;51941;52.210;5.158;2022-09-21T09:23:04;102707.47;;;16.22;57.83
65329;BME280;51941;52.210;5.158;2022-09-21T09:25:36;102707.31;;;16.36;58.06
65329;BME280;51941;52.210;5.158;2022-09-21T09:28:15;102712.56;;;16.42;57.54
65329;BME280;51941;52.210;5.158;2022-09-21T09:30:42;102712.22;;;16.39;58.04
65329;BME280;51941;52.210;5.158;2022-09-21T09:33:15;102714.91;;;16.39;58.19
65329;BME280;51941;52.210;5.158;2022-09-21T09:35:48;102715.56;;;16.34;58.00
65329;BME280;51941;52.210;5.158;2022-09-21T09:38:24;102712.75;;;16.29;58.01
65329;BME280;51941;52.210;5.158;2022-09-21T09:41:07;102720.59;;;16.42;58.19
65329;BME280;51941;52.210;5.158;2022-09-21T09:43:45;102709.59;;;16.50;58.04
65329;BME280;51941;52.210;5.158;2022-09-21T09:46:25;102713.59;;;16.59;57.12
65329;BME280;51941;52.210;5.158;2022-09-21T09:49:08;102718.09;;;16.65;57.13
65329;BME280;51941;52.210;5.158;2022-09-21T09:51:39;102716.25;;;16.66;56.84
65329;BME280;51941;52.210;5.158;2022-09-21T09:54:12;102707.91;;;16.74;56.38
65329;BME280;51941;52.210;5.158;2022-09-21T09:56:39;102676.25;;;16.71;56.82
65329;BME280;51941;52.210;5.158;2022-09-21T09:59:13;102693.47;;;17.05;56.42
65329;BME280;51941;52.210;5.158;2022-09-21T10:01:45;102702.59;;;17.27;55.70
65329;BME280;51941;52.210;5.158;2022-09-21T10:04:23;102711.47;;;17.51;55.63
65329;BME280;51941;52.210;5.158;2022-09-21T10:06:50;102711.41;;;17.69;54.94
65329;BME280;51941;52.210;5.158;2022-09-21T10:09:19;102708.16;;;17.79;54.79
65329;BME280;51941;52.210;5.158;2022-09-21T10:11:48;102696.50;;;17.85;54.80
65329;BME280;51941;52.210;5.158;2022-09-21T10:14:19;102695.31;;;17.93;54.07
65329;BME280;51941;52.210;5.158;2022-09-21T10:16:48;102699.97;;;18.09;54.57
65329;BME280;51941;52.210;5.158;2022-09-21T10:19:18;102709.16;;;18.25;54.49
65329;BME280;51941;52.210;5.158;2022-09-21T10:21:46;102703.28;;;18.39;53.92
65329;BME280;51941;52.210;5.158;2022-09-21T10:24:19;102705.38;;;18.37;52.94
65329;BME280;51941;52.210;5.158;2022-09-21T10:26:49;102702.03;;;18.18;51.98
65329;BME280;51941;52.210;5.158;2022-09-21T10:29:30;102702.91;;;17.96;52.37
65329;BME280;51941;52.210;5.158;2022-09-21T10:31:59;102708.25;;;17.84;53.10
65329;BME280;51941;52.210;5.158;2022-09-21T10:34:28;102701.63;;;17.75;53.17
65329;BME280;51941;52.210;5.158;2022-09-21T10:36:57;102698.59;;;17.60;53.00
65329;BME280;51941;52.210;5.158;2022-09-21T10:39:26;102692.38;;;17.48;53.23
65329;BME280;51941;52.210;5.158;2022-09-21T10:41:59;102696.69;;;17.49;53.56
65329;BME280;51941;52.210;5.158;2022-09-21T10:44:35;102695.53;;;17.56;53.31
65329;BME280;51941;52.210;5.158;2022-09-21T10:47:14;102687.75;;;17.55;52.86
65329;BME280;51941;52.210;5.158;2022-09-21T10:49:44;102689.59;;;17.42;52.80
65329;BME280;51941;52.210;5.158;2022-09-21T10:52:11;102687.44;;;17.21;52.65
65329;BME280;51941;52.210;5.158;2022-09-21T10:54:39;102692.09;;;17.02;53.14
65329;BME280;51941;52.210;5.158;2022-09-21T10:57:13;102682.66;;;17.00;53.84
65329;BME280;51941;52.210;5.158;2022-09-21T10:59:42;102688.44;;;16.97;53.65
65329;BME280;51941;52.210;5.158;2022-09-21T11:02:25;102683.91;;;16.97;53.45
65329;BME280;51941;52.210;5.158;2022-09-21T11:04:56;102689.63;;;17.01;53.88
65329;BME280;51941;52.210;5.158;2022-09-21T11:07:27;102679.41;;;17.10;54.14
65329;BME280;51941;52.210;5.158;2022-09-21T11:10:02;102684.22;;;17.19;54.09
65329;BME280;51941;52.210;5.158;2022-09-21T11:12:38;102683.88;;;17.27;54.01
65329;BME280;51941;52.210;5.158;2022-09-21T11:15:26;102675.72;;;17.34;53.28
65329;BME280;51941;52.210;5.158;2022-09-21T11:18:04;102681.19;;;17.39;53.26
65329;BME280;51941;52.210;5.158;2022-09-21T11:20:40;102677.63;;;17.45;52.73
65329;BME280;51941;52.210;5.158;2022-09-21T11:23:32;102667.00;;;17.38;52.44
65329;BME280;51941;52.210;5.158;2022-09-21T11:26:05;102654.22;;;17.29;52.61
65329;BME280;51941;52.210;5.158;2022-09-21T11:28:38;102675.50;;;17.47;52.97
65329;BME280;51941;52.210;5.158;2022-09-21T11:31:29;102679.34;;;17.51;52.56
65329;BME280;51941;52.210;5.158;2022-09-21T11:34:15;102683.19;;;17.43;52.36
65329;BME280;51941;52.210;5.158;2022-09-21T11:36:54;102680.50;;;17.43;52.65
65329;BME280;51941;52.210;5.158;2022-09-21T11:39:29;102682.47;;;17.48;53.04
65329;BME280;51941;52.210;5.158;2022-09-21T11:42:06;102679.94;;;17.53;52.47
65329;BME280;51941;52.210;5.158;2022-09-21T11:44:50;102674.03;;;17.63;51.97
65329;BME280;51941;52.210;5.158;2022-09-21T11:47:23;102672.28;;;17.68;51.44
65329;BME280;51941;52.210;5.158;2022-09-21T11:50:08;102667.97;;;17.91;52.03
65329;BME280;51941;52.210;5.158;2022-09-21T11:52:47;102666.19;;;18.08;50.33
65329;BME280;51941;52.210;5.158;2022-09-21T11:55:53;102662.50;;;18.37;49.78
65329;BME280;51941;52.210;5.158;2022-09-21T11:58:29;102658.22;;;18.65;49.38
65329;BME280;51941;52.210;5.158;2022-09-21T12:01:07;102657.44;;;18.81;48.19
65329;BME280;51941;52.210;5.158;2022-09-21T12:03:56;102657.81;;;19.01;47.17
65329;BME280;51941;52.210;5.158;2022-09-21T12:06:42;102641.09;;;18.82;45.22
65329;BME280;51941;52.210;5.158;2022-09-21T12:09:28;102649.91;;;18.95;46.36
65329;BME280;51941;52.210;5.158;2022-09-21T12:12:03;102612.38;;;18.66;46.90
65329;BME280;51941;52.210;5.158;2022-09-21T12:14:38;102641.25;;;18.76;46.13
65329;BME280;51941;52.210;5.158;2022-09-21T12:17:13;102617.81;;;18.54;46.54
65329;BME280;51941;52.210;5.158;2022-09-21T12:19:46;102641.56;;;18.63;46.38
65329;BME280;51941;52.210;5.158;2022-09-21T12:22:20;102636.81;;;18.53;45.43
65329;BME280;51941;52.210;5.158;2022-09-21T12:24:51;102630.16;;;18.44;45.90
65329;BME280;51941;52.210;5.158;2022-09-21T12:27:27;102631.47;;;18.41;46.48
65329;BME280;51941;52.210;5.158;2022-09-21T12:29:58;102634.03;;;18.36;47.16
65329;BME280;51941;52.210;5.158;2022-09-21T12:32:41;102633.97;;;18.31;47.37
65329;BME280;51941;52.210;5.158;2022-09-21T12:35:18;102593.31;;;18.23;47.08
65329;BME280;51941;52.210;5.158;2022-09-21T12:37:50;102637.22;;;18.62;47.18
65329;BME280;51941;52.210;5.158;2022-09-21T12:40:22;102630.28;;;18.61;46.99
65329;BME280;51941;52.210;5.158;2022-09-21T12:42:57;102627.59;;;18.61;46.77
65329;BME280;51941;52.210;5.158;2022-09-21T12:45:28;102629.19;;;18.62;46.98
65329;BME280;51941;52.210;5.158;2022-09-21T12:48:01;102619.59;;;18.49;46.58
65329;BME280;51941;52.210;5.158;2022-09-21T12:50:36;102624.28;;;18.30;46.38
65329;BME280;51941;52.210;5.158;2022-09-21T12:53:05;102625.84;;;18.14;47.00
65329;BME280;51941;52.210;5.158;2022-09-21T12:55:41;102626.13;;;18.01;47.75
65329;BME280;51941;52.210;5.158;2022-09-21T12:58:17;102618.94;;;17.90;48.27
65329;BME280;51941;52.210;5.158;2022-09-21T13:00:50;102621.50;;;17.85;47.64
65329;BME280;51941;52.210;5.158;2022-09-21T13:03:26;102620.91;;;17.83;47.63
65329;BME280;51941;52.210;5.158;2022-09-21T13:06:14;102613.34;;;17.80;47.69
65329;BME280;51941;52.210;5.158;2022-09-21T13:08:47;102611.38;;;17.75;48.21
65329;BME280;51941;52.210;5.158;2022-09-21T13:11:15;102613.72;;;17.60;47.69
65329;BME280;51941;52.210;5.158;2022-09-21T13:13:48;102605.44;;;17.50;47.93
65329;BME280;51941;52.210;5.158;2022-09-21T13:16:25;102607.19;;;17.45;48.66
65329;BME280;51941;52.210;5.158;2022-09-21T13:18:55;102614.03;;;17.40;48.60
65329;BME280;51941;52.210;5.158;2022-09-21T13:21:25;102597.53;;;17.20;48.44
65329;BME280;51941;52.210;5.158;2022-09-21T13:23:56;102605.19;;;17.17;48.43